Time;durP1;ratioP1;P1;durP2;ratioP2;P2;SDS_P1;SDS_P2;PMS_P1;PMS_P2;Temp;Humidity;BMP_temperature;BMP_pressure;BME280_temperature;BME280_humidity;BME280_pressure;Samples;Min_cycle;Max_cycle;Signal;HPM_P1;HPM_P2
2022/04/12 08:22:15;;;;;;;;;2.80;2.80;;;;;;;;1572454;27;83440;-75
2022/04/12 08:23:01;;;;;;;;;2.00;2.00;;;;;;;;1565177;27;83458;-71
2022/04/12 08:23:47;;;;;;;;;3.00;3.00;;;;;;;;1565265;27;83350;-74
2022/04/12 08:24:32;;;;;;;;;2.25;2.25;;;;;;;;1562847;27;84275;-74
2022/04/12 08:25:17;;;;;;;;;2.67;2.67;;;;;;;;1559385;28;83347;-75
2022/04/12 08:26:03;;;;;;;;;2.00;2.00;;;;;;;;1562237;27;83221;-78
2022/04/12 08:26:48;;;;;;;;;2.67;2.67;;;;;;;;1561323;27;83915;-72
2022/04/12 08:27:33;;;;;;;;;2.00;2.00;;;;;;;;1559438;27;83487;-73
2022/04/12 08:28:19;;;;;;;;;2.00;2.00;;;;;;;;1559003;28;83447;-75
2022/04/12 08:29:04;;;;;;;;;2.00;2.00;;;;;;;;1559230;28;83668;-75
2022/04/12 08:29:49;;;;;;;;;2.00;2.00;;;;;;;;1560216;27;85614;-76
2022/04/12 08:30:35;;;;;;;;;2.00;2.00;;;;;;;;1564219;27;83404;-76
2022/04/12 08:31:20;;;;;;;;;3.00;3.00;;;;;;;;1565432;27;84008;-76
2022/04/12 08:32:05;;;;;;;;;2.00;2.00;;;;;;;;1565723;27;83380;-75
2022/04/12 08:32:51;;;;;;;;;1.00;1.00;;;;;;;;1563630;27;83440;-74
2022/04/12 08:33:36;;;;;;;;;2.00;2.00;;;;;;;;1565908;27;83878;-75
2022/04/12 08:34:21;;;;;;;;;2.00;2.00;;;;;;;;1565833;27;83470;-74
2022/04/12 08:35:07;;;;;;;;;1.00;1.00;;;;;;;;1565699;27;84025;-74
2022/04/12 08:35:52;;;;;;;;;3.00;3.00;;;;;;;;1564384;27;83251;-74
2022/04/12 08:36:37;;;;;;;;;2.00;2.00;;;;;;;;1560057;27;83784;-76
2022/04/12 08:37:22;;;;;;;;;2.67;2.67;;;;;;;;1559405;28;83689;-78
2022/04/12 08:38:08;;;;;;;;;2.00;2.00;;;;;;;;1558804;28;85423;-76
2022/04/12 08:38:53;;;;;;;;;4.33;3.00;;;;;;;;1560335;27;83250;-77
2022/04/12 08:39:39;;;;;;;;;2.33;2.33;;;;;;;;1565942;27;83635;-80
2022/04/12 08:40:24;;;;;;;;;2.00;2.00;;;;;;;;1565014;27;85095;-81
2022/04/12 08:41:09;;;;;;;;;4.00;4.00;;;;;;;;1564330;27;83767;-81
2022/04/12 08:41:57;;;;;;;;;2.00;2.00;;;;;;;;1565180;27;83708;-82
2022/04/12 08:42:42;;;;;;;;;2.25;2.25;;;;;;;;1565606;27;83919;-81
2022/04/12 08:43:29;;;;;;;;;2.00;2.00;;;;;;;;1568297;27;83539;-76
2022/04/12 08:44:16;;;;;;;;;1.25;1.25;;;;;;;;1565573;27;83232;-78
2022/04/12 08:45:03;;;;;;;;;3.00;3.00;;;;;;;;1565466;27;84439;-80
2022/04/12 08:45:48;;;;;;;;;1.00;1.00;;;;;;;;1565642;27;84529;-81
2022/04/12 08:46:36;;;;;;;;;1.33;1.33;;;;;;;;1565481;27;84061;-82
2022/04/12 08:47:22;;;;;;;;;1.50;1.50;;;;;;;;1565430;27;84271;-80
2022/04/12 08:48:08;;;;;;;;;2.75;2.75;;;;;;;;1565500;27;84133;-77
2022/04/12 08:48:54;;;;;;;;;0.33;0.33;;;;;;;;1564840;27;84190;-78
2022/04/12 08:49:39;;;;;;;;;1.50;1.50;;;;;;;;1564766;27;84610;-78
2022/04/12 08:50:24;;;;;;;;;1.33;1.33;;;;;;;;1565095;27;84177;-77
2022/04/12 08:51:10;;;;;;;;;0.33;0.33;;;;;;;;1564701;27;84609;-78
2022/04/12 08:51:55;;;;;;;;;0.00;0.00;;;;;;;;1564972;27;84495;-80
2022/04/12 08:52:41;;;;;;;;;3.00;3.00;;;;;;;;1565563;27;83917;-80
2022/04/12 08:53:27;;;;;;;;;2.67;2.67;;;;;;;;1565168;27;84279;-78
2022/04/12 08:54:12;;;;;;;;;3.00;3.00;;;;;;;;1562903;27;84757;-77
2022/04/12 08:54:58;;;;;;;;;1.33;1.33;;;;;;;;1565537;27;83182;-75
2022/04/12 08:55:45;;;;;;;;;3.75;3.75;;;;;;;;1564512;27;84323;-76
2022/04/12 08:56:30;;;;;;;;;4.50;4.50;;;;;;;;1558948;27;84422;-74
2022/04/12 08:57:15;;;;;;;;;1.00;1.00;;;;;;;;1564555;27;85371;-73
2022/04/12 08:58:01;;;;;;;;;5.67;5.67;;;;;;;;1565081;27;84180;-73
2022/04/12 08:58:46;;;;;;;;;2.33;2.33;;;;;;;;1565232;27;83925;-74
2022/04/12 08:59:31;;;;;;;;;2.67;2.67;;;;;;;;1562857;27;83848;-73
2022/04/12 09:00:16;;;;;;;;;2.00;2.00;;;;;;;;1565352;27;84067;-74
2022/04/12 09:01:02;;;;;;;;;3.67;3.33;;;;;;;;1565453;27;84347;-73
2022/04/12 09:01:47;;;;;;;;;2.33;2.33;;;;;;;;1565434;27;84219;-73
2022/04/12 09:02:33;;;;;;;;;1.67;1.67;;;;;;;;1562145;27;84539;-74
2022/04/12 09:03:18;;;;;;;;;2.00;2.00;;;;;;;;1559116;28;84089;-76
2022/04/12 09:04:03;;;;;;;;;2.33;2.33;;;;;;;;1558592;28;85290;-76
2022/04/12 09:04:49;;;;;;;;;3.67;3.67;;;;;;;;1558747;28;84495;-72
2022/04/12 09:05:34;;;;;;;;;3.00;3.00;;;;;;;;1556318;27;83475;-74
2022/04/12 09:06:20;;;;;;;;;1.67;1.67;;;;;;;;1563181;27;83537;-75
2022/04/12 09:07:09;;;;;;;;;1.75;1.75;;;;;;;;1558662;28;83517;-74
2022/04/12 09:07:55;;;;;;;;;3.25;3.25;;;;;;;;1558920;27;83247;-74
2022/04/12 09:08:40;;;;;;;;;1.67;1.67;;;;;;;;1559267;27;83425;-74
2022/04/12 09:09:26;;;;;;;;;2.00;2.00;;;;;;;;1559070;27;83161;-74
2022/04/12 09:10:12;;;;;;;;;1.75;1.75;;;;;;;;1559145;28;83218;-76
2022/04/12 09:10:57;;;;;;;;;0.67;0.67;;;;;;;;1559231;27;83365;-72
2022/04/12 09:11:42;;;;;;;;;1.67;1.67;;;;;;;;1565565;27;83164;-71
2022/04/12 09:12:31;;;;;;;;;1.33;1.33;;;;;;;;1565173;27;83553;-73
2022/04/12 09:13:16;;;;;;;;;2.50;2.50;;;;;;;;1565279;27;83442;-73
2022/04/12 09:14:01;;;;;;;;;2.33;2.33;;;;;;;;1565340;27;83161;-74
2022/04/12 09:14:56;;;;;;;;;2.33;2.33;;;;;;;;1560474;27;83337;-73
2022/04/12 09:15:45;;;;;;;;;1.50;1.50;;;;;;;;1559142;28;83411;-74
2022/04/12 09:16:30;;;;;;;;;1.00;1.00;;;;;;;;1559002;27;83495;-74
2022/04/12 09:17:19;;;;;;;;;3.25;3.25;;;;;;;;1564953;27;83538;-73
2022/04/12 09:18:05;;;;;;;;;0.50;0.50;;;;;;;;1564452;27;83574;-73
2022/04/12 09:18:50;;;;;;;;;1.67;1.67;;;;;;;;1559994;27;83475;-72
2022/04/12 09:19:43;;;;;;;;;0.67;0.67;;;;;;;;1562459;27;83538;-72
2022/04/12 09:20:28;;;;;;;;;1.25;1.25;;;;;;;;1559158;27;83404;-72
2022/04/12 09:21:16;;;;;;;;;0.67;0.67;;;;;;;;1563929;27;83547;-73
2022/04/12 09:22:02;;;;;;;;;2.75;2.75;;;;;;;;1563730;27;83834;-72
2022/04/12 09:22:47;;;;;;;;;3.67;3.00;;;;;;;;1564602;27;83372;-73
2022/04/12 09:23:34;;;;;;;;;2.33;2.33;;;;;;;;1564900;27;83483;-72
2022/04/12 09:24:20;;;;;;;;;1.25;1.25;;;;;;;;1564631;27;83046;-73
2022/04/12 09:25:06;;;;;;;;;1.50;1.50;;;;;;;;1558713;27;83601;-74
2022/04/12 09:25:52;;;;;;;;;2.00;2.00;;;;;;;;1559673;27;83748;-72
2022/04/12 09:26:37;;;;;;;;;1.00;1.00;;;;;;;;1558917;27;83418;-72
2022/04/12 09:27:23;;;;;;;;;2.00;2.00;;;;;;;;1563765;27;83655;-72
2022/04/12 09:28:10;;;;;;;;;3.00;3.00;;;;;;;;1559451;27;83473;-72
2022/04/12 09:28:57;;;;;;;;;1.25;1.25;;;;;;;;1558873;28;83449;-74
2022/04/12 09:29:47;;;;;;;;;2.00;2.00;;;;;;;;1560662;27;83863;-73
2022/04/12 09:30:34;;;;;;;;;2.75;2.75;;;;;;;;1561462;27;83451;-74
2022/04/12 09:31:20;;;;;;;;;1.00;1.00;;;;;;;;1559908;27;84156;-73
2022/04/12 09:32:05;;;;;;;;;2.33;2.33;;;;;;;;1560351;27;83599;-73
2022/04/12 09:32:51;;;;;;;;;1.50;1.50;;;;;;;;1559900;27;83889;-73
2022/04/12 09:33:37;;;;;;;;;3.00;3.00;;;;;;;;1554742;28;83462;-74
2022/04/12 09:34:22;;;;;;;;;4.00;4.00;;;;;;;;1554961;28;83429;-76
2022/04/12 09:35:08;;;;;;;;;2.00;2.00;;;;;;;;1556872;28;84044;-75
2022/04/12 09:35:53;;;;;;;;;2.00;2.00;;;;;;;;1557162;28;84006;-76
2022/04/12 09:36:38;;;;;;;;;4.33;3.67;;;;;;;;1554659;28;83610;-76
2022/04/12 09:37:25;;;;;;;;;3.00;2.00;;;;;;;;1554558;28;83797;-77
2022/04/12 09:38:10;;;;;;;;;2.50;2.50;;;;;;;;1554586;28;84009;-76
2022/04/12 09:38:56;;;;;;;;;2.00;2.00;;;;;;;;1554560;28;83411;-76
2022/04/12 09:39:42;;;;;;;;;2.00;2.00;;;;;;;;1554376;28;83420;-75
2022/04/12 09:40:27;;;;;;;;;2.33;2.33;;;;;;;;1556603;28;83455;-75
2022/04/12 09:41:17;;;;;;;;;3.00;3.00;;;;;;;;1558765;28;83516;-74
2022/04/12 09:42:02;;;;;;;;;1.25;1.25;;;;;;;;1557414;27;83720;-75
2022/04/12 09:42:52;;;;;;;;;3.00;3.00;;;;;;;;1555654;28;84831;-74
2022/04/12 09:43:40;;;;;;;;;2.00;2.00;;;;;;;;1560585;28;83824;-74
2022/04/12 09:44:26;;;;;;;;;2.50;2.50;;;;;;;;1560465;27;84798;-75
2022/04/12 09:45:12;;;;;;;;;2.00;2.00;;;;;;;;1554967;28;84006;-75
2022/04/12 09:46:05;;;;;;;;;1.50;1.50;;;;;;;;1554691;28;84142;-75
2022/04/12 09:46:50;;;;;;;;;1.25;1.25;;;;;;;;1555986;28;83830;-74
2022/04/12 09:47:35;;;;;;;;;2.67;2.67;;;;;;;;1556319;27;83573;-75
2022/04/12 09:48:30;;;;;;;;;1.67;1.67;;;;;;;;1554905;28;83626;-75
2022/04/12 09:49:15;;;;;;;;;3.00;3.00;;;;;;;;1563234;28;83262;-74
2022/04/12 09:50:01;;;;;;;;;2.00;2.00;;;;;;;;1556586;27;83853;-74
2022/04/12 09:50:49;;;;;;;;;2.33;2.33;;;;;;;;1558792;27;85882;-74
2022/04/12 09:51:37;;;;;;;;;2.25;2.25;;;;;;;;1554693;28;83370;-73
2022/04/12 09:52:22;;;;;;;;;1.75;1.75;;;;;;;;1554531;28;84178;-74
2022/04/12 09:53:09;;;;;;;;;2.00;2.00;;;;;;;;1554503;28;86031;-77
2022/04/12 09:53:55;;;;;;;;;1.00;1.00;;;;;;;;1548147;28;85612;-74
2022/04/12 09:54:40;;;;;;;;;2.67;2.67;;;;;;;;1550271;28;84465;-76
2022/04/12 09:55:36;;;;;;;;;3.00;3.00;;;;;;;;1554548;28;84441;-74
2022/04/12 09:56:29;;;;;;;;;2.00;2.00;;;;;;;;1554700;28;84118;-75
2022/04/12 09:57:15;;;;;;;;;2.00;2.00;;;;;;;;1555737;28;82914;-73
2022/04/12 09:58:01;;;;;;;;;2.00;2.00;;;;;;;;1556714;28;82978;-75
2022/04/12 09:58:47;;;;;;;;;1.00;1.00;;;;;;;;1561072;28;83924;-74
2022/04/12 09:59:34;;;;;;;;;2.00;2.00;;;;;;;;1558460;27;84443;-74
2022/04/12 10:00:19;;;;;;;;;2.00;2.00;;;;;;;;1556980;28;85199;-74
2022/04/12 10:01:05;;;;;;;;;1.67;1.67;;;;;;;;1555026;28;83887;-75
2022/04/12 10:01:50;;;;;;;;;2.00;2.00;;;;;;;;1554398;28;83110;-74
2022/04/12 10:02:36;;;;;;;;;2.00;2.00;;;;;;;;1554626;28;83986;-74
2022/04/12 10:03:24;;;;;;;;;3.00;3.00;;;;;;;;1558083;28;84042;-74
2022/04/12 10:04:10;;;;;;;;;0.75;0.75;;;;;;;;1560911;28;84404;-72
2022/04/12 10:04:55;;;;;;;;;4.00;4.00;;;;;;;;1555702;27;84158;-72
2022/04/12 10:05:41;;;;;;;;;2.00;2.00;;;;;;;;1554190;28;84005;-72
2022/04/12 10:06:27;;;;;;;;;1.67;1.67;;;;;;;;1554700;28;83732;-73
2022/04/12 10:07:14;;;;;;;;;2.25;2.25;;;;;;;;1554647;28;84417;-74
2022/04/12 10:08:01;;;;;;;;;1.75;1.75;;;;;;;;1554821;28;84071;-74
2022/04/12 10:08:50;;;;;;;;;4.00;3.00;;;;;;;;1555640;28;83206;-75
2022/04/12 10:09:37;;;;;;;;;2.00;2.00;;;;;;;;1553927;27;83318;-71
2022/04/12 10:10:23;;;;;;;;;2.50;2.50;;;;;;;;1550570;28;84007;-72
2022/04/12 10:11:08;;;;;;;;;2.25;2.25;;;;;;;;1550125;28;83166;-73
2022/04/12 10:11:53;;;;;;;;;3.00;3.00;;;;;;;;1556676;28;84365;-73
2022/04/12 10:12:38;;;;;;;;;1.67;1.67;;;;;;;;1559156;28;83476;-73
2022/04/12 10:13:24;;;;;;;;;2.00;2.00;;;;;;;;1557845;28;83665;-73
2022/04/12 10:14:10;;;;;;;;;3.00;3.00;;;;;;;;1552003;28;83632;-71
2022/04/12 10:14:55;;;;;;;;;4.00;4.00;;;;;;;;1549014;28;83308;-71
2022/04/12 10:15:41;;;;;;;;;3.00;3.00;;;;;;;;1552822;28;83478;-71
2022/04/12 10:16:27;;;;;;;;;3.00;3.00;;;;;;;;1552999;27;84307;-72
2022/04/12 10:17:13;;;;;;;;;2.33;2.33;;;;;;;;1550201;28;83622;-73
2022/04/12 10:17:58;;;;;;;;;2.00;2.00;;;;;;;;1548194;28;83386;-72
2022/04/12 10:18:44;;;;;;;;;2.00;2.00;;;;;;;;1551318;28;83473;-73
2022/04/12 10:19:30;;;;;;;;;2.50;2.50;;;;;;;;1550522;28;83703;-74
2022/04/12 10:20:16;;;;;;;;;2.00;2.00;;;;;;;;1551885;28;83644;-73
2022/04/12 10:21:01;;;;;;;;;2.33;2.33;;;;;;;;1551377;28;83408;-73
2022/04/12 10:21:46;;;;;;;;;2.00;2.00;;;;;;;;1551957;28;84041;-71
2022/04/12 10:22:33;;;;;;;;;3.00;3.00;;;;;;;;1551056;28;83288;-70
2022/04/12 10:23:22;;;;;;;;;2.75;2.75;;;;;;;;1551187;28;83820;-71
2022/04/12 10:24:10;;;;;;;;;1.50;1.50;;;;;;;;1552135;28;83372;-72
2022/04/12 10:24:56;;;;;;;;;1.50;1.50;;;;;;;;1549285;28;82952;-72
2022/04/12 10:25:41;;;;;;;;;2.33;2.33;;;;;;;;1549998;28;83391;-72
2022/04/12 10:26:27;;;;;;;;;2.00;2.00;;;;;;;;1549350;28;83571;-71
2022/04/12 10:27:13;;;;;;;;;4.25;4.25;;;;;;;;1549269;28;83323;-72
2022/04/12 10:27:59;;;;;;;;;3.00;3.00;;;;;;;;1548541;28;83346;-72
2022/04/12 10:28:44;;;;;;;;;2.00;2.00;;;;;;;;1548535;28;83344;-71
2022/04/12 10:29:30;;;;;;;;;2.67;2.67;;;;;;;;1548259;28;83433;-72
2022/04/12 10:30:15;;;;;;;;;2.00;2.00;;;;;;;;1548697;28;83361;-72
2022/04/12 10:31:03;;;;;;;;;2.67;2.67;;;;;;;;1554691;28;83366;-72
2022/04/12 10:32:00;;;;;;;;;2.25;2.25;;;;;;;;1549227;28;83897;-72
2022/04/12 10:33:05;;;;;;;;;1.50;1.50;;;;;;;;1552608;28;83409;-70
2022/04/12 10:34:03;;;;;;;;;3.25;3.25;;;;;;;;1552065;28;83446;-70
2022/04/12 10:34:59;;;;;;;;;3.00;3.00;;;;;;;;1548865;28;83513;-70
2022/04/12 10:35:45;;;;;;;;;3.00;3.00;;;;;;;;1548334;28;83613;-70
2022/04/12 10:36:48;;;;;;;;;3.33;3.33;;;;;;;;1550290;28;83503;-70
2022/04/12 10:37:34;;;;;;;;;2.75;2.75;;;;;;;;1553452;28;85470;-72
2022/04/12 10:38:20;;;;;;;;;3.00;3.00;;;;;;;;1553039;28;83776;-73
2022/04/12 10:39:11;;;;;;;;;2.00;2.00;;;;;;;;1548011;28;83200;-72
2022/04/12 10:40:00;;;;;;;;;3.25;3.25;;;;;;;;1548347;28;83348;-73
2022/04/12 10:40:51;;;;;;;;;3.00;3.00;;;;;;;;1553095;28;83468;-71
2022/04/12 10:41:36;;;;;;;;;5.00;5.00;;;;;;;;1553932;27;85885;-72
2022/04/12 10:42:26;;;;;;;;;2.33;2.33;;;;;;;;1550713;28;83679;-72
2022/04/12 10:43:11;;;;;;;;;3.25;3.25;;;;;;;;1548309;28;83675;-72
2022/04/12 10:43:57;;;;;;;;;3.33;3.33;;;;;;;;1551853;28;85932;-72
2022/04/12 10:44:50;;;;;;;;;2.75;2.75;;;;;;;;1551310;28;83494;-73
2022/04/12 10:45:35;;;;;;;;;3.00;3.00;;;;;;;;1551133;28;83353;-72
2022/04/12 10:46:20;;;;;;;;;2.67;2.67;;;;;;;;1551102;28;83556;-72
2022/04/12 10:47:06;;;;;;;;;2.00;2.00;;;;;;;;1553779;28;83702;-72
2022/04/12 10:47:55;;;;;;;;;3.67;3.67;;;;;;;;1554235;28;83339;-72
2022/04/12 10:48:40;;;;;;;;;3.00;3.00;;;;;;;;1554448;28;84158;-71
2022/04/12 10:49:34;;;;;;;;;2.33;2.33;;;;;;;;1554033;28;83576;-71
2022/04/12 10:50:19;;;;;;;;;2.00;2.00;;;;;;;;1554199;28;83227;-72
2022/04/12 10:51:05;;;;;;;;;0.67;0.67;;;;;;;;1548513;28;83551;-72
2022/04/12 10:51:59;;;;;;;;;2.00;2.00;;;;;;;;1548181;28;84380;-72
2022/04/12 10:52:45;;;;;;;;;2.50;2.50;;;;;;;;1547787;28;83813;-71
2022/04/12 10:53:37;;;;;;;;;2.00;2.00;;;;;;;;1547617;28;83833;-71
2022/04/12 10:54:33;;;;;;;;;1.75;1.75;;;;;;;;1547461;28;83588;-71
2022/04/12 10:55:23;;;;;;;;;1.25;1.25;;;;;;;;1551712;28;83436;-75
2022/04/12 10:56:08;;;;;;;;;2.75;2.75;;;;;;;;1554171;28;83478;-75
2022/04/12 10:57:12;;;;;;;;;1.00;1.00;;;;;;;;1550001;28;83545;-71
2022/04/12 10:58:14;;;;;;;;;0.75;0.75;;;;;;;;1551362;28;83732;-74
2022/04/12 10:58:59;;;;;;;;;3.50;3.50;;;;;;;;1547776;28;86089;-71
2022/04/12 10:59:48;;;;;;;;;3.67;3.67;;;;;;;;1547405;28;83862;-72
2022/04/12 11:00:34;;;;;;;;;2.00;2.00;;;;;;;;1547461;28;84009;-73
2022/04/12 11:01:28;;;;;;;;;3.00;3.00;;;;;;;;1547303;28;84049;-72
2022/04/12 11:02:14;;;;;;;;;1.75;1.75;;;;;;;;1547138;28;84230;-71
2022/04/12 11:02:59;;;;;;;;;3.25;3.25;;;;;;;;1547524;28;83991;-72
2022/04/12 11:03:45;;;;;;;;;2.67;2.67;;;;;;;;1547787;28;83959;-73
2022/04/12 11:04:33;;;;;;;;;1.67;1.67;;;;;;;;1548262;28;84065;-73
2022/04/12 11:05:37;;;;;;;;;2.00;2.00;;;;;;;;1548233;28;84043;-73
2022/04/12 11:06:23;;;;;;;;;2.00;2.00;;;;;;;;1548177;28;84450;-73
2022/04/12 11:07:09;;;;;;;;;3.50;2.50;;;;;;;;1548219;28;84271;-73
2022/04/12 11:07:54;;;;;;;;;1.50;1.50;;;;;;;;1548188;28;83228;-73
2022/04/12 11:08:46;;;;;;;;;2.33;2.33;;;;;;;;1547810;28;85563;-73
2022/04/12 11:09:31;;;;;;;;;1.00;1.00;;;;;;;;1547692;28;83964;-72
2022/04/12 11:10:16;;;;;;;;;2.33;2.33;;;;;;;;1544425;28;84231;-72
2022/04/12 11:11:03;;;;;;;;;2.33;2.33;;;;;;;;1547731;28;83290;-72
2022/04/12 11:11:52;;;;;;;;;2.00;2.00;;;;;;;;1547759;28;84149;-72
2022/04/12 11:12:41;;;;;;;;;1.25;1.25;;;;;;;;1547781;28;86068;-72
2022/04/12 11:13:27;;;;;;;;;1.00;1.00;;;;;;;;1547799;28;83779;-72
2022/04/12 11:14:36;;;;;;;;;1.00;1.00;;;;;;;;1550776;28;84636;-72
2022/04/12 11:15:24;;;;;;;;;2.00;2.00;;;;;;;;1547450;28;84152;-72
2022/04/12 11:16:10;;;;;;;;;1.75;1.75;;;;;;;;1548840;28;84076;-72
2022/04/12 11:17:12;;;;;;;;;2.50;2.50;;;;;;;;1548293;28;83895;-72
2022/04/12 11:18:08;;;;;;;;;2.00;2.00;;;;;;;;1554980;28;84202;-72
2022/04/12 11:18:54;;;;;;;;;2.00;2.00;;;;;;;;1560040;28;83954;-72
2022/04/12 11:19:41;;;;;;;;;3.00;3.00;;;;;;;;1556879;28;83966;-72
2022/04/12 11:20:27;;;;;;;;;1.00;1.00;;;;;;;;1554378;28;84228;-72
2022/04/12 11:21:13;;;;;;;;;2.50;2.50;;;;;;;;1557195;28;84180;-72
2022/04/12 11:21:59;;;;;;;;;2.00;2.00;;;;;;;;1553703;28;84671;-72
2022/04/12 11:22:54;;;;;;;;;2.75;2.75;;;;;;;;1553733;28;83550;-72
2022/04/12 11:23:45;;;;;;;;;1.50;1.50;;;;;;;;1550669;28;83432;-72
2022/04/12 11:24:31;;;;;;;;;1.25;1.25;;;;;;;;1548216;28;83478;-72
2022/04/12 11:25:18;;;;;;;;;3.00;3.00;;;;;;;;1548122;28;83456;-72
2022/04/12 11:26:23;;;;;;;;;2.00;2.00;;;;;;;;1548024;28;83020;-72
2022/04/12 11:27:09;;;;;;;;;0.00;0.00;;;;;;;;1548053;28;83430;-72
2022/04/12 11:27:58;;;;;;;;;3.00;3.00;;;;;;;;1547905;28;83472;-72
2022/04/12 11:28:45;;;;;;;;;1.50;1.50;;;;;;;;1550689;28;83326;-72
2022/04/12 11:29:31;;;;;;;;;0.50;0.50;;;;;;;;1554379;28;83596;-72
2022/04/12 11:30:16;;;;;;;;;2.00;2.00;;;;;;;;1554496;28;83373;-72
2022/04/12 11:31:01;;;;;;;;;2.33;2.33;;;;;;;;1554256;28;83064;-72
2022/04/12 11:31:51;;;;;;;;;3.00;3.00;;;;;;;;1554251;28;83352;-72
2022/04/12 11:32:36;;;;;;;;;2.50;2.50;;;;;;;;1553943;28;83288;-72
2022/04/12 11:33:28;;;;;;;;;2.00;2.00;;;;;;;;1552762;28;83296;-72
2022/04/12 11:34:14;;;;;;;;;3.00;3.00;;;;;;;;1553360;28;83267;-72
2022/04/12 11:35:00;;;;;;;;;2.00;2.00;;;;;;;;1554155;28;83465;-72
2022/04/12 11:35:45;;;;;;;;;2.00;2.00;;;;;;;;1554189;28;83223;-72
2022/04/12 11:36:31;;;;;;;;;2.00;2.00;;;;;;;;1550768;28;83243;-72
2022/04/12 11:37:16;;;;;;;;;1.00;1.00;;;;;;;;1548117;28;83431;-72
2022/04/12 11:38:05;;;;;;;;;1.00;1.00;;;;;;;;1550781;28;83502;-72
2022/04/12 11:38:50;;;;;;;;;1.00;1.00;;;;;;;;1549996;28;84262;-72
2022/04/12 11:39:40;;;;;;;;;0.00;0.00;;;;;;;;1550676;28;83228;-72
2022/04/12 11:40:26;;;;;;;;;2.00;2.00;;;;;;;;1552419;28;83410;-72
2022/04/12 11:41:11;;;;;;;;;1.00;1.00;;;;;;;;1548807;28;83241;-72
2022/04/12 11:42:00;;;;;;;;;1.00;1.00;;;;;;;;1548177;28;83403;-72
2022/04/12 11:42:46;;;;;;;;;2.00;2.00;;;;;;;;1554229;28;82972;-72
2022/04/12 11:43:31;;;;;;;;;2.00;2.00;;;;;;;;1554277;28;83596;-72
2022/04/12 11:44:19;;;;;;;;;1.00;1.00;;;;;;;;1555901;28;83451;-72
2022/04/12 11:45:05;;;;;;;;;1.50;1.50;;;;;;;;1554263;28;83203;-72
2022/04/12 11:45:51;;;;;;;;;2.00;2.00;;;;;;;;1554231;28;83188;-72
2022/04/12 11:46:37;;;;;;;;;1.00;1.00;;;;;;;;1554280;28;83196;-72
2022/04/12 11:47:28;;;;;;;;;1.00;1.00;;;;;;;;1554064;28;83539;-72
2022/04/12 11:48:14;;;;;;;;;1.25;1.25;;;;;;;;1554098;28;83527;-72
2022/04/12 11:49:06;;;;;;;;;0.33;0.33;;;;;;;;1554255;28;83437;-73
2022/04/12 11:49:51;;;;;;;;;2.00;2.00;;;;;;;;1553631;28;86848;-72
2022/04/12 11:50:36;;;;;;;;;2.00;2.00;;;;;;;;1553630;28;83990;-72
2022/04/12 11:51:22;;;;;;;;;2.67;2.67;;;;;;;;1549912;28;83771;-72
2022/04/12 11:52:09;;;;;;;;;1.00;1.00;;;;;;;;1553723;28;83212;-72
2022/04/12 11:52:57;;;;;;;;;1.00;1.00;;;;;;;;1553899;28;83902;-72
2022/04/12 11:53:47;;;;;;;;;1.00;1.00;;;;;;;;1552219;28;83599;-72
2022/04/12 11:54:33;;;;;;;;;1.00;1.00;;;;;;;;1554298;28;83618;-72
2022/04/12 11:55:18;;;;;;;;;1.00;1.00;;;;;;;;1554339;28;83264;-72
2022/04/12 11:56:03;;;;;;;;;1.00;1.00;;;;;;;;1554251;28;83330;-72
2022/04/12 11:57:02;;;;;;;;;4.00;2.33;;;;;;;;1553859;28;83572;-72
2022/04/12 11:57:49;;;;;;;;;1.25;1.25;;;;;;;;1550894;28;83707;-72
2022/04/12 11:58:34;;;;;;;;;1.00;1.00;;;;;;;;1547251;28;83722;-73
2022/04/12 11:59:19;;;;;;;;;1.00;1.00;;;;;;;;1554000;28;83554;-73
2022/04/12 12:00:06;;;;;;;;;1.33;1.33;;;;;;;;1554055;28;83577;-73
2022/04/12 12:00:51;;;;;;;;;1.50;1.50;;;;;;;;1554173;28;83490;-72
2022/04/12 12:01:36;;;;;;;;;3.00;3.00;;;;;;;;1550720;28;83315;-73
2022/04/12 12:02:22;;;;;;;;;0.33;0.33;;;;;;;;1547933;28;83460;-72
2022/04/12 12:03:15;;;;;;;;;1.75;1.75;;;;;;;;1548621;28;83633;-72
2022/04/12 12:04:07;;;;;;;;;2.00;2.00;;;;;;;;1547639;28;84035;-72
2022/04/12 12:04:53;;;;;;;;;1.75;1.75;;;;;;;;1552156;28;83524;-72
2022/04/12 12:05:39;;;;;;;;;1.00;1.00;;;;;;;;1553474;28;83697;-72
2022/04/12 12:06:24;;;;;;;;;2.00;2.00;;;;;;;;1556996;28;83510;-72
2022/04/12 12:07:09;;;;;;;;;0.33;0.33;;;;;;;;1554112;28;83960;-72
2022/04/12 12:07:58;;;;;;;;;0.67;0.67;;;;;;;;1550478;28;84147;-72
2022/04/12 12:08:44;;;;;;;;;2.00;2.00;;;;;;;;1550098;28;84263;-72
2022/04/12 12:09:30;;;;;;;;;2.50;2.50;;;;;;;;1553858;28;84047;-73
2022/04/12 12:10:15;;;;;;;;;1.00;1.00;;;;;;;;1548166;28;84044;-74
2022/04/12 12:11:10;;;;;;;;;1.33;1.33;;;;;;;;1547984;28;83869;-72
2022/04/12 12:11:56;;;;;;;;;1.75;1.75;;;;;;;;1547713;28;83389;-72
2022/04/12 12:12:45;;;;;;;;;1.50;1.50;;;;;;;;1547882;28;83997;-72
2022/04/12 12:13:30;;;;;;;;;1.25;1.25;;;;;;;;1548610;28;84025;-72
2022/04/12 12:14:19;;;;;;;;;1.00;1.00;;;;;;;;1553374;28;83937;-72
2022/04/12 12:15:16;;;;;;;;;2.00;2.00;;;;;;;;1552896;28;83236;-72
2022/04/12 12:16:01;;;;;;;;;1.00;1.00;;;;;;;;1548042;28;84000;-72
2022/04/12 12:17:05;;;;;;;;;2.00;2.00;;;;;;;;1547528;28;84509;-72
2022/04/12 12:17:51;;;;;;;;;2.25;2.25;;;;;;;;1553993;28;84548;-71
2022/04/12 12:18:39;;;;;;;;;1.50;1.50;;;;;;;;1554069;28;84022;-71
2022/04/12 12:19:25;;;;;;;;;1.00;1.00;;;;;;;;1554163;28;83839;-72
2022/04/12 12:20:10;;;;;;;;;1.00;1.00;;;;;;;;1554276;28;83194;-72
2022/04/12 12:20:56;;;;;;;;;1.67;1.67;;;;;;;;1554129;28;84454;-72
2022/04/12 12:21:44;;;;;;;;;2.00;2.00;;;;;;;;1553968;28;83906;-72
2022/04/12 12:22:35;;;;;;;;;1.75;1.75;;;;;;;;1554106;28;83775;-72
2022/04/12 12:23:21;;;;;;;;;0.75;0.75;;;;;;;;1551801;28;83076;-72
2022/04/12 12:24:06;;;;;;;;;2.00;2.00;;;;;;;;1547816;28;84409;-72
2022/04/12 12:24:56;;;;;;;;;1.00;1.00;;;;;;;;1547861;28;86411;-72
2022/04/12 12:25:47;;;;;;;;;0.75;0.75;;;;;;;;1547424;28;84123;-72
2022/04/12 12:26:33;;;;;;;;;2.00;2.00;;;;;;;;1547377;28;84477;-72
2022/04/12 12:27:28;;;;;;;;;1.67;1.67;;;;;;;;1551934;28;83220;-71
2022/04/12 12:28:15;;;;;;;;;1.00;1.00;;;;;;;;1552981;28;83208;-71
2022/04/12 12:29:00;;;;;;;;;2.00;2.00;;;;;;;;1547827;28;83982;-72
2022/04/12 12:29:46;;;;;;;;;1.00;1.00;;;;;;;;1549034;28;83392;-71
2022/04/12 12:30:32;;;;;;;;;2.00;2.00;;;;;;;;1553089;28;83093;-72
2022/04/12 12:31:17;;;;;;;;;1.00;1.00;;;;;;;;1553762;28;83298;-72
2022/04/12 12:32:03;;;;;;;;;2.00;2.00;;;;;;;;1553995;28;83538;-72
2022/04/12 12:32:52;;;;;;;;;1.33;1.33;;;;;;;;1554074;28;83450;-72
2022/04/12 12:33:43;;;;;;;;;2.00;2.00;;;;;;;;1554073;28;83368;-72
2022/04/12 12:34:29;;;;;;;;;0.00;0.00;;;;;;;;1554095;28;83478;-72
2022/04/12 12:35:15;;;;;;;;;1.00;1.00;;;;;;;;1553990;28;83111;-72
2022/04/12 12:36:00;;;;;;;;;0.75;0.75;;;;;;;;1554020;28;83450;-72
2022/04/12 12:36:49;;;;;;;;;2.33;2.33;;;;;;;;1553946;28;83115;-72
2022/04/12 12:37:35;;;;;;;;;1.00;1.00;;;;;;;;1554063;28;83289;-72
2022/04/12 12:38:27;;;;;;;;;2.00;2.00;;;;;;;;1549262;28;83403;-72
2022/04/12 12:39:17;;;;;;;;;0.75;0.75;;;;;;;;1547616;28;84141;-72
2022/04/12 12:40:03;;;;;;;;;2.00;2.00;;;;;;;;1547892;28;83847;-72
2022/04/12 12:40:54;;;;;;;;;1.00;1.00;;;;;;;;1547763;28;83232;-72
2022/04/12 12:41:39;;;;;;;;;1.00;1.00;;;;;;;;1547869;28;82980;-72
2022/04/12 12:42:34;;;;;;;;;1.00;1.00;;;;;;;;1547625;28;83901;-72
2022/04/12 12:43:19;;;;;;;;;0.50;0.50;;;;;;;;1548565;28;83958;-72
2022/04/12 12:44:04;;;;;;;;;2.00;2.00;;;;;;;;1547821;28;83445;-72
2022/04/12 12:44:50;;;;;;;;;1.00;1.00;;;;;;;;1547787;28;83353;-72
2022/04/12 12:45:37;;;;;;;;;2.00;2.00;;;;;;;;1547562;28;83379;-73
2022/04/12 12:46:34;;;;;;;;;2.00;2.00;;;;;;;;1547542;28;83813;-72
2022/04/12 12:47:21;;;;;;;;;1.00;1.00;;;;;;;;1548632;28;82885;-72
2022/04/12 12:48:07;;;;;;;;;0.00;0.00;;;;;;;;1553775;28;83557;-73
2022/04/12 12:49:04;;;;;;;;;2.00;2.00;;;;;;;;1553817;28;83514;-75
2022/04/12 12:49:50;;;;;;;;;1.00;1.00;;;;;;;;1550535;28;83102;-73
2022/04/12 12:50:38;;;;;;;;;2.00;2.00;;;;;;;;1550361;28;83366;-73
2022/04/12 12:51:23;;;;;;;;;1.25;1.25;;;;;;;;1558830;28;82973;-73
2022/04/12 12:52:10;;;;;;;;;1.67;1.67;;;;;;;;1557886;28;83544;-73
2022/04/12 12:52:59;;;;;;;;;1.00;1.00;;;;;;;;1551400;28;84147;-75
2022/04/12 12:53:44;;;;;;;;;1.50;1.50;;;;;;;;1547925;28;83752;-71
2022/04/12 12:54:30;;;;;;;;;2.67;2.67;;;;;;;;1547434;28;83916;-71
2022/04/12 12:55:16;;;;;;;;;2.00;2.00;;;;;;;;1547770;28;83464;-71
2022/04/12 12:56:02;;;;;;;;;3.00;3.00;;;;;;;;1549706;28;83980;-70
2022/04/12 12:56:48;;;;;;;;;3.00;3.00;;;;;;;;1554103;28;83340;-73
2022/04/12 12:57:37;;;;;;;;;2.67;2.67;;;;;;;;1553988;28;83609;-73
2022/04/12 12:58:29;;;;;;;;;2.00;2.00;;;;;;;;1548189;28;83823;-73
2022/04/12 12:59:15;;;;;;;;;2.00;2.00;;;;;;;;1547153;28;86822;-73
2022/04/12 13:00:03;;;;;;;;;0.00;0.00;;;;;;;;1551476;28;83950;-74
2022/04/12 13:00:48;;;;;;;;;2.00;2.00;;;;;;;;1550236;28;85562;-75
2022/04/12 13:01:46;;;;;;;;;2.33;2.33;;;;;;;;1553260;28;83395;-74
2022/04/12 13:02:35;;;;;;;;;2.00;2.00;;;;;;;;1553002;28;83593;-74
2022/04/12 13:03:22;;;;;;;;;2.00;2.00;;;;;;;;1553962;28;83365;-74
2022/04/12 13:04:18;;;;;;;;;2.25;2.25;;;;;;;;1553891;28;84000;-73
2022/04/12 13:05:04;;;;;;;;;2.00;2.00;;;;;;;;1553995;28;84071;-74
2022/04/12 13:05:57;;;;;;;;;2.25;2.25;;;;;;;;1553975;28;83644;-74
2022/04/12 13:06:42;;;;;;;;;2.00;2.00;;;;;;;;1554016;28;83755;-74